Historyczne dane pomiarowe

Dodano dane terminowe – wersja testowa.

Dane z okresu 1951-2019

Wersja bazy: 1.34 [2019-03-16, lista zmian], aktualizacja planowana na 2019-04-15

Dane meteo z obszaru Polski uzyskane na podstawie danych udostępnionych przez Instytut Meteorologii i Gospodarki Wodnej – Państwowy Instytut Badawczy.

 

Wybierz Datę:    

       

TemperaturaWilgotnośćWiatrCiśnienieOpadyŚniegCzas trwania zjawisk
 Stacja t tx tn tng RH VA  wxwx mslp ppp RRR   cm mm wxwxwxwxwxwxwx
1956-11-09 -6.0 -1.8 -8.0-11.9 82.5- 2.7 1.0---- 0.0------------
1956-11-08 -2.9 -0.4 -7.5 -7.9 73.8- 3.3 2.0---- 0.0------------
1956-11-07 0.0 2.2 -1.5 -0.4 81.8- 5.3 4.3---- 0.1-- 1---------
1956-11-06 1.5 4.8 -0.1 -2.1 82.5- 4.3 6.0---- 1.8------------
1956-11-05 3.4 5.0 -3.6 -9.9 78.8- 8.0 2.3---- 0.1------------
1956-11-04 -2.1 3.4 -5.4-10.2 76.3- 2.3 0.7---- 0.0------------
1956-11-03 -1.0 1.2 -4.3 -6.3 91.3- 7.7 1.0---- 0.3------------
1956-11-02 -0.6 3.8 -4.8 -8.4 80.3- 5.7 1.0---- 0.0------------
1956-11-01 -2.0 4.2 -9.8-14.9 74.0- 1.3 0.7---- 0.0------------
1956-10-31 -4.3 1.7 -7.0 -2.2 80.0- 4.7 3.7---- 0.1------------
1956-10-30 3.4 6.7 1.3 2.7 89.5- 8.0 2.3---- 0.0------------
1956-10-29 4.5 9.7 1.7 -1.3 81.8- 5.3 2.7---- 0.9------------
1956-10-28 9.9 13.5 6.2 3.4 84.3- 6.3 1.0---- 2.0------------
1956-10-27 11.4 13.6 5.3 0.6 77.8- 7.0 1.7---- 0.7------------
1956-10-26 10.0 17.2 6.4 0.9 84.0- 2.7 0.3---- 0.0------------
1956-10-25 10.7 17.1 4.8 -0.7 78.5- 0.0 1.3---- 0.0------------
1956-10-24 10.3 16.3 5.0 3.2 81.8- 2.7 0.7---- 0.0------------
1956-10-23 9.8 16.2 5.6 0.3 90.3- 1.7 0.7---- 0.0------------
1956-10-22 12.0 17.8 7.5 2.8 85.3- 1.7 1.0---- 0.0------------
1956-10-21 11.8 16.5 9.7 7.7 88.8- 5.7 0.7---- 0.0------------
1956-10-20 11.3 12.1 10.0 7.8 93.5- 8.0 0.3---- 5.6------------
1956-10-19 12.4 15.0 8.6 7.1 81.0- 8.0 2.0---- 0.8------------
1956-10-18 10.6 15.2 1.2 -3.2 66.5- 6.0 1.3---- 1.2------------
1956-10-17 5.5 11.3 -0.8 -5.8 76.3- 0.3 1.3---- 0.0------------
1956-10-16 4.7 10.9 -0.8 -6.3 83.8- 0.3 0.7---- 0.0------------
1956-10-15 4.1 10.4 0.0 -5.1 87.5- 1.7 1.3---- 0.0------------
1956-10-14 8.1 11.9 4.6 7.4 71.0- 3.7 7.3---- 2.4------------
1956-10-13 9.8 10.9 4.3 4.6 67.8- 7.7 7.7---- 0.0------------
1956-10-12 7.6 12.1 2.8 -2.4 79.5- 5.7 3.0---- 0.0------------
1956-10-11 4.8 9.6 0.3 -4.1 77.8- 3.3 0.7---- 0.0------------
1956-10-10 4.9 7.5 2.3 2.5 74.0- 5.3 4.0---- 0.0------------
1956-10-09 5.5 10.4 -1.3 -8.0 85.8- 4.3 0.3---- 1.8------------
1956-10-08 3.6 9.9 1.0 -3.7 85.8- 3.3 1.0---- 0.0------------
1956-10-07 5.2 7.8 0.2 0.1 82.8- 6.0 7.3---- 0.7------------
1956-10-06 4.9 11.9 0.1 8.6 96.5- 8.0 4.3---- 18.7------------
1956-10-05 11.8 16.9 6.6 2.1 82.3- 6.7 1.0---- 9.4------------
1956-10-04 11.6 14.3 10.8 8.8 97.5- 8.0 3.0---- 20.1------------
1956-10-03 17.9 25.5 14.0 9.3 66.0- 6.3 2.3---- 2.6------------
1956-10-02 19.8 27.6 12.4 6.4 60.8- 1.0 1.0---- 0.0------------
1956-10-01 16.3 25.4 9.0 5.9 81.3- 2.7 0.7---- 0.0------------
1956-09-30 14.2 20.4 10.0 5.8 85.8- 4.3 1.3---- 0.0------------
1956-09-29 16.2 21.1 11.4 3.6 76.0- 4.7 0.7---- 0.0------------
1956-09-28 14.5 20.8 12.1 7.8 81.0- 3.7 1.3---- 0.0------------
1956-09-27 18.5 23.4 13.5 7.2 50.0- 4.0 1.7---- 0.0------------
1956-09-26 16.3 23.5 8.7 0.8 46.8- 0.0 1.0---- 0.0------------
1956-09-25 13.9 21.5 2.1 -1.7 64.5- 1.0 1.0---- 0.0------------
1956-09-24 8.8 16.0 3.3 -0.2 67.0- 0.0 4.0---- 0.0------------
1956-09-23 11.5 18.1 5.9 2.6 79.0- 0.3 2.0---- 0.0------------
1956-09-22 12.3 20.5 4.3 -0.3 73.5- 0.0 1.3---- 0.0------------
1956-09-21 12.2 20.1 5.0 -0.2 71.0- 0.0 0.0---- 0.0------------
1956-09-20 11.0 18.5 3.2 -2.6 70.0- 4.7 1.0---- 0.0------------
1956-09-19 8.2 14.7 2.7 -1.4 79.8- 2.7 1.3---- 0.0------------
1956-09-18 7.1 12.4 5.0 2.4 87.5- 6.7 1.7---- 0.0------------
1956-09-17 7.8 12.8 5.9 6.8 93.3- 5.3 2.0---- 5.4------------
1956-09-16 12.7 17.4 6.7 2.0 77.0- 7.0 2.0---- 1.3------------
1956-09-15 12.3 17.3 7.0 6.2 78.3- 4.3 2.3---- 0.0------------
1956-09-14 10.2 13.6 4.8 2.4 79.8- 7.0 1.7---- 0.0------------
1956-09-13 8.0 13.2 7.0 5.6 88.5- 6.0 2.7---- 1.4------------
1956-09-12 11.2 15.7 8.5 6.5 90.8- 7.7 2.0---- 9.4------------
1956-09-11 15.2 21.2 12.3 12.2 87.0- 7.7 3.3---- 4.7------------
314.3 ms

 

Źródłem pochodzenia danych jest Instytut Meteorologii i Gospodarki Wodnej – Państwowy Instytut Badawczy. Dane Instytutu Meteorologii i Gospodarki Wodnej – Państwowego Instytutu Badawczego zostały przetworzone.

Dane źródłowe można odnaleźć na stronie https://dane.imgw.pl